sensor_id;sensor_type;location;lat;lon;timestamp;temperature;humidity
18450;DHT22;9354;50.194;7.690;2022-11-20T00:01:30;2.80;99.90
18450;DHT22;9354;50.194;7.690;2022-11-20T00:03:58;2.80;99.90
18450;DHT22;9354;50.194;7.690;2022-11-20T00:06:27;2.90;99.90
18450;DHT22;9354;50.194;7.690;2022-11-20T00:08:56;2.90;99.90
18450;DHT22;9354;50.194;7.690;2022-11-20T00:11:27;2.90;99.90
18450;DHT22;9354;50.194;7.690;2022-11-20T00:13:56;2.90;99.90
18450;DHT22;9354;50.194;7.690;2022-11-20T00:16:26;2.90;99.90
18450;DHT22;9354;50.194;7.690;2022-11-20T00:18:54;2.90;99.90
18450;DHT22;9354;50.194;7.690;2022-11-20T00:21:23;2.80;99.90
18450;DHT22;9354;50.194;7.690;2022-11-20T00:23:54;2.80;99.90
18450;DHT22;9354;50.194;7.690;2022-11-20T00:26:22;2.80;99.90
18450;DHT22;9354;50.194;7.690;2022-11-20T00:28:52;2.90;99.90
18450;DHT22;9354;50.194;7.690;2022-11-20T00:31:20;2.90;99.90
18450;DHT22;9354;50.194;7.690;2022-11-20T00:33:48;2.90;99.90
18450;DHT22;9354;50.194;7.690;2022-11-20T00:36:17;2.90;99.90
18450;DHT22;9354;50.194;7.690;2022-11-20T00:38:45;2.80;99.90
18450;DHT22;9354;50.194;7.690;2022-11-20T00:41:15;2.90;99.90
18450;DHT22;9354;50.194;7.690;2022-11-20T00:43:43;2.90;99.90
18450;DHT22;9354;50.194;7.690;2022-11-20T00:46:13;2.90;99.90
18450;DHT22;9354;50.194;7.690;2022-11-20T00:48:41;2.90;99.90
18450;DHT22;9354;50.194;7.690;2022-11-20T00:51:10;2.90;99.90
18450;DHT22;9354;50.194;7.690;2022-11-20T00:53:38;2.90;99.90
18450;DHT22;9354;50.194;7.690;2022-11-20T00:56:07;2.80;99.90
18450;DHT22;9354;50.194;7.690;2022-11-20T00:58:37;2.80;99.90
18450;DHT22;9354;50.194;7.690;2022-11-20T01:01:06;2.80;99.90
18450;DHT22;9354;50.194;7.690;2022-11-20T01:03:35;2.90;99.90
18450;DHT22;9354;50.194;7.690;2022-11-20T01:06:05;2.90;99.90
18450;DHT22;9354;50.194;7.690;2022-11-20T01:08:34;3.00;99.90
18450;DHT22;9354;50.194;7.690;2022-11-20T01:11:03;3.00;99.90
18450;DHT22;9354;50.194;7.690;2022-11-20T01:13:31;3.10;99.90
18450;DHT22;9354;50.194;7.690;2022-11-20T01:16:07;3.10;99.90
18450;DHT22;9354;50.194;7.690;2022-11-20T01:18:35;3.00;99.90
18450;DHT22;9354;50.194;7.690;2022-11-20T01:21:04;3.00;99.90
18450;DHT22;9354;50.194;7.690;2022-11-20T01:23:33;3.00;99.90
18450;DHT22;9354;50.194;7.690;2022-11-20T01:26:01;3.00;99.90
18450;DHT22;9354;50.194;7.690;2022-11-20T01:28:30;3.00;99.90
18450;DHT22;9354;50.194;7.690;2022-11-20T01:30:57;3.00;99.90
18450;DHT22;9354;50.194;7.690;2022-11-20T01:33:26;3.00;99.90
18450;DHT22;9354;50.194;7.690;2022-11-20T01:36:03;2.90;99.90
18450;DHT22;9354;50.194;7.690;2022-11-20T01:38:31;2.90;99.90
18450;DHT22;9354;50.194;7.690;2022-11-20T01:40:59;2.90;99.90
18450;DHT22;9354;50.194;7.690;2022-11-20T01:43:27;2.90;99.90
18450;DHT22;9354;50.194;7.690;2022-11-20T01:46:03;2.90;99.90
18450;DHT22;9354;50.194;7.690;2022-11-20T01:48:36;3.00;99.90
18450;DHT22;9354;50.194;7.690;2022-11-20T01:51:07;3.00;99.90
18450;DHT22;9354;50.194;7.690;2022-11-20T01:53:38;3.00;99.90
18450;DHT22;9354;50.194;7.690;2022-11-20T01:56:08;3.00;99.90
18450;DHT22;9354;50.194;7.690;2022-11-20T01:58:39;2.90;99.90
18450;DHT22;9354;50.194;7.690;2022-11-20T02:01:09;2.90;99.90
18450;DHT22;9354;50.194;7.690;2022-11-20T02:03:38;2.90;99.90
18450;DHT22;9354;50.194;7.690;2022-11-20T02:06:11;2.90;99.90
18450;DHT22;9354;50.194;7.690;2022-11-20T02:08:39;3.00;99.90
18450;DHT22;9354;50.194;7.690;2022-11-20T02:11:07;3.00;99.90
18450;DHT22;9354;50.194;7.690;2022-11-20T02:13:35;3.00;99.90
18450;DHT22;9354;50.194;7.690;2022-11-20T02:16:13;3.00;99.90
18450;DHT22;9354;50.194;7.690;2022-11-20T02:18:43;3.00;99.90
18450;DHT22;9354;50.194;7.690;2022-11-20T02:21:18;3.00;99.90
18450;DHT22;9354;50.194;7.690;2022-11-20T02:24:10;3.10;99.90
18450;DHT22;9354;50.194;7.690;2022-11-20T02:26:43;3.10;99.90
18450;DHT22;9354;50.194;7.690;2022-11-20T02:29:12;3.20;99.90
18450;DHT22;9354;50.194;7.690;2022-11-20T02:31:42;3.20;99.90
18450;DHT22;9354;50.194;7.690;2022-11-20T02:34:10;3.20;99.90
18450;DHT22;9354;50.194;7.690;2022-11-20T02:36:39;3.10;99.90
18450;DHT22;9354;50.194;7.690;2022-11-20T02:39:11;3.10;99.90
18450;DHT22;9354;50.194;7.690;2022-11-20T02:41:42;3.10;99.90
18450;DHT22;9354;50.194;7.690;2022-11-20T02:44:10;3.10;99.90
18450;DHT22;9354;50.194;7.690;2022-11-20T02:46:37;3.10;99.90
18450;DHT22;9354;50.194;7.690;2022-11-20T02:49:05;3.20;99.90
18450;DHT22;9354;50.194;7.690;2022-11-20T02:51:32;3.20;99.90
18450;DHT22;9354;50.194;7.690;2022-11-20T02:54:00;3.20;99.90
18450;DHT22;9354;50.194;7.690;2022-11-20T02:56:29;3.20;99.90
18450;DHT22;9354;50.194;7.690;2022-11-20T02:58:56;3.30;99.90
18450;DHT22;9354;50.194;7.690;2022-11-20T03:01:24;3.40;99.90
18450;DHT22;9354;50.194;7.690;2022-11-20T03:03:51;3.40;99.90
18450;DHT22;9354;50.194;7.690;2022-11-20T03:06:20;3.30;99.90
18450;DHT22;9354;50.194;7.690;2022-11-20T03:08:47;3.30;99.90
18450;DHT22;9354;50.194;7.690;2022-11-20T03:11:16;3.30;99.90
18450;DHT22;9354;50.194;7.690;2022-11-20T03:13:45;3.30;99.90
18450;DHT22;9354;50.194;7.690;2022-11-20T03:16:14;3.40;99.90
18450;DHT22;9354;50.194;7.690;2022-11-20T03:18:42;3.40;99.90
18450;DHT22;9354;50.194;7.690;2022-11-20T03:21:11;3.30;99.90
18450;DHT22;9354;50.194;7.690;2022-11-20T03:23:39;3.30;99.90
18450;DHT22;9354;50.194;7.690;2022-11-20T03:26:12;3.30;99.90
18450;DHT22;9354;50.194;7.690;2022-11-20T03:28:41;3.30;99.90
18450;DHT22;9354;50.194;7.690;2022-11-20T03:31:11;3.30;99.90
18450;DHT22;9354;50.194;7.690;2022-11-20T03:33:40;3.30;99.90
18450;DHT22;9354;50.194;7.690;2022-11-20T03:36:09;3.30;99.90
18450;DHT22;9354;50.194;7.690;2022-11-20T03:38:37;3.30;99.90
18450;DHT22;9354;50.194;7.690;2022-11-20T03:41:06;3.20;99.90
18450;DHT22;9354;50.194;7.690;2022-11-20T03:43:35;3.20;99.90
18450;DHT22;9354;50.194;7.690;2022-11-20T03:46:03;3.10;99.90
18450;DHT22;9354;50.194;7.690;2022-11-20T03:48:33;3.20;99.90
18450;DHT22;9354;50.194;7.690;2022-11-20T03:51:09;3.20;99.90
18450;DHT22;9354;50.194;7.690;2022-11-20T03:53:36;3.20;99.90
18450;DHT22;9354;50.194;7.690;2022-11-20T03:56:05;3.20;99.90
18450;DHT22;9354;50.194;7.690;2022-11-20T03:58:33;3.20;99.90
18450;DHT22;9354;50.194;7.690;2022-11-20T04:01:05;3.20;99.90
18450;DHT22;9354;50.194;7.690;2022-11-20T04:03:35;3.20;99.90
18450;DHT22;9354;50.194;7.690;2022-11-20T04:06:05;3.20;99.90
18450;DHT22;9354;50.194;7.690;2022-11-20T04:08:32;3.20;99.90
18450;DHT22;9354;50.194;7.690;2022-11-20T04:11:10;3.20;99.90
18450;DHT22;9354;50.194;7.690;2022-11-20T04:13:38;3.20;99.90
18450;DHT22;9354;50.194;7.690;2022-11-20T04:16:06;3.30;99.90
18450;DHT22;9354;50.194;7.690;2022-11-20T04:18:36;3.30;99.90
18450;DHT22;9354;50.194;7.690;2022-11-20T04:21:04;3.30;99.90
18450;DHT22;9354;50.194;7.690;2022-11-20T04:23:32;3.40;99.90
18450;DHT22;9354;50.194;7.690;2022-11-20T04:26:03;3.40;99.90
18450;DHT22;9354;50.194;7.690;2022-11-20T04:28:31;3.40;99.90
18450;DHT22;9354;50.194;7.690;2022-11-20T04:31:03;3.40;99.90
18450;DHT22;9354;50.194;7.690;2022-11-20T04:33:31;3.40;99.90
18450;DHT22;9354;50.194;7.690;2022-11-20T04:36:02;3.40;99.90
18450;DHT22;9354;50.194;7.690;2022-11-20T04:38:30;3.30;99.90
18450;DHT22;9354;50.194;7.690;2022-11-20T04:40:58;3.30;99.90
18450;DHT22;9354;50.194;7.690;2022-11-20T04:43:26;3.30;99.90
18450;DHT22;9354;50.194;7.690;2022-11-20T04:45:54;3.30;99.90
18450;DHT22;9354;50.194;7.690;2022-11-20T04:48:22;3.30;99.90
18450;DHT22;9354;50.194;7.690;2022-11-20T04:50:50;3.30;99.90
18450;DHT22;9354;50.194;7.690;2022-11-20T04:53:20;3.30;99.90
18450;DHT22;9354;50.194;7.690;2022-11-20T04:55:47;3.30;99.90
18450;DHT22;9354;50.194;7.690;2022-11-20T04:58:15;3.30;99.90
18450;DHT22;9354;50.194;7.690;2022-11-20T05:00:43;3.30;99.90
18450;DHT22;9354;50.194;7.690;2022-11-20T05:03:10;3.40;99.90
18450;DHT22;9354;50.194;7.690;2022-11-20T05:05:37;3.40;99.90
18450;DHT22;9354;50.194;7.690;2022-11-20T05:08:05;3.40;99.90
18450;DHT22;9354;50.194;7.690;2022-11-20T05:10:34;3.30;99.90
18450;DHT22;9354;50.194;7.690;2022-11-20T05:13:01;3.30;99.90
18450;DHT22;9354;50.194;7.690;2022-11-20T05:15:28;3.30;99.90
18450;DHT22;9354;50.194;7.690;2022-11-20T05:17:56;3.30;99.90
18450;DHT22;9354;50.194;7.690;2022-11-20T05:20:23;3.30;99.90
18450;DHT22;9354;50.194;7.690;2022-11-20T05:22:51;3.40;99.90
18450;DHT22;9354;50.194;7.690;2022-11-20T05:25:18;3.40;99.90
18450;DHT22;9354;50.194;7.690;2022-11-20T05:27:47;3.30;99.90
18450;DHT22;9354;50.194;7.690;2022-11-20T05:30:14;3.30;99.90
18450;DHT22;9354;50.194;7.690;2022-11-20T05:32:42;3.40;99.90
18450;DHT22;9354;50.194;7.690;2022-11-20T05:35:09;3.40;99.90
18450;DHT22;9354;50.194;7.690;2022-11-20T05:37:36;3.50;99.90
18450;DHT22;9354;50.194;7.690;2022-11-20T05:40:05;3.50;99.90
18450;DHT22;9354;50.194;7.690;2022-11-20T05:42:33;3.60;99.90
18450;DHT22;9354;50.194;7.690;2022-11-20T05:45:04;3.60;99.90
18450;DHT22;9354;50.194;7.690;2022-11-20T05:47:33;3.50;99.90
18450;DHT22;9354;50.194;7.690;2022-11-20T05:50:00;3.50;99.90
18450;DHT22;9354;50.194;7.690;2022-11-20T05:52:28;3.50;99.90
18450;DHT22;9354;50.194;7.690;2022-11-20T05:54:56;3.50;99.90
18450;DHT22;9354;50.194;7.690;2022-11-20T05:57:24;3.50;99.90
18450;DHT22;9354;50.194;7.690;2022-11-20T05:59:51;3.40;99.90
18450;DHT22;9354;50.194;7.690;2022-11-20T06:02:20;3.40;99.90
18450;DHT22;9354;50.194;7.690;2022-11-20T06:04:47;3.40;99.90
18450;DHT22;9354;50.194;7.690;2022-11-20T06:07:15;3.40;99.90
18450;DHT22;9354;50.194;7.690;2022-11-20T06:09:42;3.40;99.90
18450;DHT22;9354;50.194;7.690;2022-11-20T06:12:10;3.50;99.90
18450;DHT22;9354;50.194;7.690;2022-11-20T06:14:37;3.50;99.90
18450;DHT22;9354;50.194;7.690;2022-11-20T06:17:05;3.40;99.90
18450;DHT22;9354;50.194;7.690;2022-11-20T06:19:33;3.50;99.90
18450;DHT22;9354;50.194;7.690;2022-11-20T06:22:01;3.50;99.90
18450;DHT22;9354;50.194;7.690;2022-11-20T06:24:28;3.50;99.90
18450;DHT22;9354;50.194;7.690;2022-11-20T06:26:55;3.50;99.90
18450;DHT22;9354;50.194;7.690;2022-11-20T06:29:23;3.60;99.90
18450;DHT22;9354;50.194;7.690;2022-11-20T06:31:50;3.60;99.90
18450;DHT22;9354;50.194;7.690;2022-11-20T06:34:18;3.50;99.90
18450;DHT22;9354;50.194;7.690;2022-11-20T06:36:46;3.60;99.90
18450;DHT22;9354;50.194;7.690;2022-11-20T06:39:14;3.60;99.90
18450;DHT22;9354;50.194;7.690;2022-11-20T06:41:41;3.60;99.90
18450;DHT22;9354;50.194;7.690;2022-11-20T06:44:08;3.60;99.90
18450;DHT22;9354;50.194;7.690;2022-11-20T06:46:36;3.60;99.90
18450;DHT22;9354;50.194;7.690;2022-11-20T06:49:03;3.60;99.90
18450;DHT22;9354;50.194;7.690;2022-11-20T06:51:31;3.60;99.90
18450;DHT22;9354;50.194;7.690;2022-11-20T06:54:00;3.60;99.90
18450;DHT22;9354;50.194;7.690;2022-11-20T06:56:27;3.60;99.90
18450;DHT22;9354;50.194;7.690;2022-11-20T06:58:55;3.60;99.90
18450;DHT22;9354;50.194;7.690;2022-11-20T07:01:22;3.50;99.90
18450;DHT22;9354;50.194;7.690;2022-11-20T07:03:49;3.50;99.90
18450;DHT22;9354;50.194;7.690;2022-11-20T07:06:17;3.60;99.90
18450;DHT22;9354;50.194;7.690;2022-11-20T07:08:45;3.60;99.90
18450;DHT22;9354;50.194;7.690;2022-11-20T07:11:14;3.60;99.90
18450;DHT22;9354;50.194;7.690;2022-11-20T07:13:41;3.60;99.90
18450;DHT22;9354;50.194;7.690;2022-11-20T07:16:09;3.60;99.90
18450;DHT22;9354;50.194;7.690;2022-11-20T07:18:36;3.60;99.90
18450;DHT22;9354;50.194;7.690;2022-11-20T07:21:05;3.60;99.90
18450;DHT22;9354;50.194;7.690;2022-11-20T07:23:33;3.60;99.90
18450;DHT22;9354;50.194;7.690;2022-11-20T07:26:03;3.60;99.90
18450;DHT22;9354;50.194;7.690;2022-11-20T07:28:32;3.50;99.90
18450;DHT22;9354;50.194;7.690;2022-11-20T07:30:59;3.60;99.90
18450;DHT22;9354;50.194;7.690;2022-11-20T07:33:27;3.50;99.90
18450;DHT22;9354;50.194;7.690;2022-11-20T07:35:54;3.50;99.90
18450;DHT22;9354;50.194;7.690;2022-11-20T07:38:22;3.50;99.90
18450;DHT22;9354;50.194;7.690;2022-11-20T07:40:53;3.60;99.90
18450;DHT22;9354;50.194;7.690;2022-11-20T07:43:21;3.60;99.90
18450;DHT22;9354;50.194;7.690;2022-11-20T07:45:50;3.70;99.90
18450;DHT22;9354;50.194;7.690;2022-11-20T07:48:17;3.70;99.90
18450;DHT22;9354;50.194;7.690;2022-11-20T07:50:45;3.70;99.90
18450;DHT22;9354;50.194;7.690;2022-11-20T07:53:12;3.80;99.90
18450;DHT22;9354;50.194;7.690;2022-11-20T07:55:39;3.80;99.90
18450;DHT22;9354;50.194;7.690;2022-11-20T07:58:07;3.80;99.90
18450;DHT22;9354;50.194;7.690;2022-11-20T08:00:35;3.80;99.90
18450;DHT22;9354;50.194;7.690;2022-11-20T08:03:05;3.90;99.90
18450;DHT22;9354;50.194;7.690;2022-11-20T08:05:32;3.90;99.90
18450;DHT22;9354;50.194;7.690;2022-11-20T08:08:00;3.90;99.90
18450;DHT22;9354;50.194;7.690;2022-11-20T08:10:28;3.90;99.90
18450;DHT22;9354;50.194;7.690;2022-11-20T08:12:55;3.90;99.90
18450;DHT22;9354;50.194;7.690;2022-11-20T08:15:40;3.90;99.90
18450;DHT22;9354;50.194;7.690;2022-11-20T08:18:10;4.00;99.90
18450;DHT22;9354;50.194;7.690;2022-11-20T08:20:38;4.00;99.90
18450;DHT22;9354;50.194;7.690;2022-11-20T08:23:07;4.00;99.90
18450;DHT22;9354;50.194;7.690;2022-11-20T08:25:36;4.10;99.90
18450;DHT22;9354;50.194;7.690;2022-11-20T08:28:05;4.10;99.90
18450;DHT22;9354;50.194;7.690;2022-11-20T08:30:34;4.20;99.90
18450;DHT22;9354;50.194;7.690;2022-11-20T08:33:02;4.20;99.90
18450;DHT22;9354;50.194;7.690;2022-11-20T08:35:35;4.30;99.90
18450;DHT22;9354;50.194;7.690;2022-11-20T08:38:03;4.30;99.90
18450;DHT22;9354;50.194;7.690;2022-11-20T08:40:30;4.40;99.90
18450;DHT22;9354;50.194;7.690;2022-11-20T08:42:58;4.40;99.90
18450;DHT22;9354;50.194;7.690;2022-11-20T08:45:25;4.40;99.90
18450;DHT22;9354;50.194;7.690;2022-11-20T08:47:53;4.40;99.90
18450;DHT22;9354;50.194;7.690;2022-11-20T08:50:20;4.40;99.90
18450;DHT22;9354;50.194;7.690;2022-11-20T08:52:49;4.40;99.90
18450;DHT22;9354;50.194;7.690;2022-11-20T08:55:17;4.40;99.90
18450;DHT22;9354;50.194;7.690;2022-11-20T08:57:44;4.40;99.90
18450;DHT22;9354;50.194;7.690;2022-11-20T09:00:13;4.50;99.90
18450;DHT22;9354;50.194;7.690;2022-11-20T09:02:40;4.50;99.90
18450;DHT22;9354;50.194;7.690;2022-11-20T09:05:08;4.50;99.90
18450;DHT22;9354;50.194;7.690;2022-11-20T09:07:35;4.40;99.90
18450;DHT22;9354;50.194;7.690;2022-11-20T09:10:05;4.50;99.90
18450;DHT22;9354;50.194;7.690;2022-11-20T09:12:33;4.50;99.90
18450;DHT22;9354;50.194;7.690;2022-11-20T09:15:01;4.60;99.90
18450;DHT22;9354;50.194;7.690;2022-11-20T09:17:28;4.60;99.90
18450;DHT22;9354;50.194;7.690;2022-11-20T09:19:55;4.60;99.90
18450;DHT22;9354;50.194;7.690;2022-11-20T09:22:23;4.60;99.90
18450;DHT22;9354;50.194;7.690;2022-11-20T09:24:50;4.60;99.90
18450;DHT22;9354;50.194;7.690;2022-11-20T09:27:19;4.60;99.90
18450;DHT22;9354;50.194;7.690;2022-11-20T09:29:48;4.60;99.90
18450;DHT22;9354;50.194;7.690;2022-11-20T09:32:15;4.60;99.90
18450;DHT22;9354;50.194;7.690;2022-11-20T09:34:42;4.60;99.90
18450;DHT22;9354;50.194;7.690;2022-11-20T09:37:10;4.60;99.90
18450;DHT22;9354;50.194;7.690;2022-11-20T09:39:37;4.60;99.90
18450;DHT22;9354;50.194;7.690;2022-11-20T09:42:20;4.70;99.90
18450;DHT22;9354;50.194;7.690;2022-11-20T09:47:55;4.80;99.90
18450;DHT22;9354;50.194;7.690;2022-11-20T09:50:31;4.80;99.90
18450;DHT22;9354;50.194;7.690;2022-11-20T09:53:10;4.90;99.90
18450;DHT22;9354;50.194;7.690;2022-11-20T09:55:38;4.90;99.90
18450;DHT22;9354;50.194;7.690;2022-11-20T09:58:15;4.90;99.90
18450;DHT22;9354;50.194;7.690;2022-11-20T10:00:43;4.90;99.90
18450;DHT22;9354;50.194;7.690;2022-11-20T10:03:16;4.90;99.90
18450;DHT22;9354;50.194;7.690;2022-11-20T10:05:47;4.90;99.90
18450;DHT22;9354;50.194;7.690;2022-11-20T10:08:21;4.90;99.90
18450;DHT22;9354;50.194;7.690;2022-11-20T10:10:54;4.90;99.90
18450;DHT22;9354;50.194;7.690;2022-11-20T10:13:34;4.90;99.90
18450;DHT22;9354;50.194;7.690;2022-11-20T10:16:17;4.90;99.90
18450;DHT22;9354;50.194;7.690;2022-11-20T10:18:58;4.80;99.90
18450;DHT22;9354;50.194;7.690;2022-11-20T10:21:45;4.80;99.90
18450;DHT22;9354;50.194;7.690;2022-11-20T10:24:38;4.80;99.90
18450;DHT22;9354;50.194;7.690;2022-11-20T10:27:22;4.90;99.90
18450;DHT22;9354;50.194;7.690;2022-11-20T10:30:01;4.90;99.90
18450;DHT22;9354;50.194;7.690;2022-11-20T10:32:33;4.90;99.90
18450;DHT22;9354;50.194;7.690;2022-11-20T10:35:06;4.90;99.90
18450;DHT22;9354;50.194;7.690;2022-11-20T10:37:41;5.00;99.90
18450;DHT22;9354;50.194;7.690;2022-11-20T10:40:20;5.10;99.90
18450;DHT22;9354;50.194;7.690;2022-11-20T10:42:51;5.20;99.90
18450;DHT22;9354;50.194;7.690;2022-11-20T10:48:23;5.30;99.90
18450;DHT22;9354;50.194;7.690;2022-11-20T10:51:11;5.40;99.90
18450;DHT22;9354;50.194;7.690;2022-11-20T10:53:57;5.50;99.90
18450;DHT22;9354;50.194;7.690;2022-11-20T10:56:31;5.60;99.90
18450;DHT22;9354;50.194;7.690;2022-11-20T10:59:12;5.60;99.90
18450;DHT22;9354;50.194;7.690;2022-11-20T11:01:47;5.60;99.90
18450;DHT22;9354;50.194;7.690;2022-11-20T11:04:33;5.60;99.90
18450;DHT22;9354;50.194;7.690;2022-11-20T11:07:08;5.60;99.90
18450;DHT22;9354;50.194;7.690;2022-11-20T11:09:41;5.50;99.90
18450;DHT22;9354;50.194;7.690;2022-11-20T11:12:10;5.50;99.90
18450;DHT22;9354;50.194;7.690;2022-11-20T11:14:49;5.50;99.90
18450;DHT22;9354;50.194;7.690;2022-11-20T11:17:28;5.50;99.90
18450;DHT22;9354;50.194;7.690;2022-11-20T11:20:06;5.60;99.90
18450;DHT22;9354;50.194;7.690;2022-11-20T11:22:43;5.60;99.90
18450;DHT22;9354;50.194;7.690;2022-11-20T11:25:21;5.60;99.90
18450;DHT22;9354;50.194;7.690;2022-11-20T11:27:50;5.50;99.90
18450;DHT22;9354;50.194;7.690;2022-11-20T11:30:19;5.50;99.90
18450;DHT22;9354;50.194;7.690;2022-11-20T11:32:48;5.50;99.90
18450;DHT22;9354;50.194;7.690;2022-11-20T11:35:22;5.50;99.90
18450;DHT22;9354;50.194;7.690;2022-11-20T11:37:50;5.60;99.90
18450;DHT22;9354;50.194;7.690;2022-11-20T11:40:21;5.60;99.90
18450;DHT22;9354;50.194;7.690;2022-11-20T11:42:54;5.60;99.90
18450;DHT22;9354;50.194;7.690;2022-11-20T11:45:22;5.60;99.90
18450;DHT22;9354;50.194;7.690;2022-11-20T11:47:51;5.60;99.90
18450;DHT22;9354;50.194;7.690;2022-11-20T11:50:21;5.60;99.90
18450;DHT22;9354;50.194;7.690;2022-11-20T11:52:58;5.70;99.90
18450;DHT22;9354;50.194;7.690;2022-11-20T11:55:31;5.70;99.90
18450;DHT22;9354;50.194;7.690;2022-11-20T11:58:09;5.80;99.90
18450;DHT22;9354;50.194;7.690;2022-11-20T12:00:39;5.80;99.90
18450;DHT22;9354;50.194;7.690;2022-11-20T12:03:15;5.70;99.90
18450;DHT22;9354;50.194;7.690;2022-11-20T12:05:47;5.70;99.90
18450;DHT22;9354;50.194;7.690;2022-11-20T12:08:20;5.70;99.90
18450;DHT22;9354;50.194;7.690;2022-11-20T12:10:51;5.70;99.90
18450;DHT22;9354;50.194;7.690;2022-11-20T12:13:39;5.70;99.90
18450;DHT22;9354;50.194;7.690;2022-11-20T12:16:10;5.60;99.90
18450;DHT22;9354;50.194;7.690;2022-11-20T12:18:40;5.70;99.90
18450;DHT22;9354;50.194;7.690;2022-11-20T12:21:27;5.70;99.90
18450;DHT22;9354;50.194;7.690;2022-11-20T12:24:06;5.70;99.90
18450;DHT22;9354;50.194;7.690;2022-11-20T12:26:49;5.70;99.90
18450;DHT22;9354;50.194;7.690;2022-11-20T12:29:27;5.70;99.90
18450;DHT22;9354;50.194;7.690;2022-11-20T12:32:12;5.70;99.90
18450;DHT22;9354;50.194;7.690;2022-11-20T12:34:52;5.70;99.90
18450;DHT22;9354;50.194;7.690;2022-11-20T12:37:33;5.80;99.90
18450;DHT22;9354;50.194;7.690;2022-11-20T12:40:18;5.80;99.90
18450;DHT22;9354;50.194;7.690;2022-11-20T12:43:04;5.80;99.90
18450;DHT22;9354;50.194;7.690;2022-11-20T12:46:09;5.90;99.90
18450;DHT22;9354;50.194;7.690;2022-11-20T12:49:05;6.00;99.90
18450;DHT22;9354;50.194;7.690;2022-11-20T12:51:51;6.00;99.90
18450;DHT22;9354;50.194;7.690;2022-11-20T12:54:46;6.10;99.90
18450;DHT22;9354;50.194;7.690;2022-11-20T12:57:20;6.10;99.90
18450;DHT22;9354;50.194;7.690;2022-11-20T13:00:11;6.10;99.90
18450;DHT22;9354;50.194;7.690;2022-11-20T13:02:58;6.10;99.90
18450;DHT22;9354;50.194;7.690;2022-11-20T13:05:33;6.30;99.90
18450;DHT22;9354;50.194;7.690;2022-11-20T13:08:03;6.40;99.90
18450;DHT22;9354;50.194;7.690;2022-11-20T13:10:39;6.60;99.90
18450;DHT22;9354;50.194;7.690;2022-11-20T13:13:16;6.70;99.90
18450;DHT22;9354;50.194;7.690;2022-11-20T13:15:51;6.80;99.90
18450;DHT22;9354;50.194;7.690;2022-11-20T13:18:21;7.00;99.90
18450;DHT22;9354;50.194;7.690;2022-11-20T13:20:48;7.10;99.90
18450;DHT22;9354;50.194;7.690;2022-11-20T13:23:25;7.20;99.90
18450;DHT22;9354;50.194;7.690;2022-11-20T13:26:04;7.30;99.90
18450;DHT22;9354;50.194;7.690;2022-11-20T13:28:32;7.40;99.90
18450;DHT22;9354;50.194;7.690;2022-11-20T13:31:00;7.40;99.90
18450;DHT22;9354;50.194;7.690;2022-11-20T13:33:31;7.40;99.90
18450;DHT22;9354;50.194;7.690;2022-11-20T13:36:02;7.40;99.90
18450;DHT22;9354;50.194;7.690;2022-11-20T13:38:43;7.40;99.90
18450;DHT22;9354;50.194;7.690;2022-11-20T13:41:11;7.40;99.90
18450;DHT22;9354;50.194;7.690;2022-11-20T13:44:09;7.30;99.90
18450;DHT22;9354;50.194;7.690;2022-11-20T13:46:39;7.30;99.90
18450;DHT22;9354;50.194;7.690;2022-11-20T13:49:08;7.20;99.90
18450;DHT22;9354;50.194;7.690;2022-11-20T13:51:41;7.30;99.90
18450;DHT22;9354;50.194;7.690;2022-11-20T13:54:47;7.20;99.90
18450;DHT22;9354;50.194;7.690;2022-11-20T14:00:18;7.20;99.90
18450;DHT22;9354;50.194;7.690;2022-11-20T14:03:01;7.20;99.90
18450;DHT22;9354;50.194;7.690;2022-11-20T14:05:32;7.20;99.90
18450;DHT22;9354;50.194;7.690;2022-11-20T14:08:03;7.20;99.90
18450;DHT22;9354;50.194;7.690;2022-11-20T14:10:33;7.10;99.90
18450;DHT22;9354;50.194;7.690;2022-11-20T14:13:10;7.10;99.90
18450;DHT22;9354;50.194;7.690;2022-11-20T14:15:38;7.10;99.90
18450;DHT22;9354;50.194;7.690;2022-11-20T14:18:12;7.10;99.90
18450;DHT22;9354;50.194;7.690;2022-11-20T14:20:42;7.10;99.90
18450;DHT22;9354;50.194;7.690;2022-11-20T14:23:10;7.10;99.90
18450;DHT22;9354;50.194;7.690;2022-11-20T14:25:42;7.10;99.90
18450;DHT22;9354;50.194;7.690;2022-11-20T14:28:11;7.00;99.90
18450;DHT22;9354;50.194;7.690;2022-11-20T14:30:47;7.00;99.90
18450;DHT22;9354;50.194;7.690;2022-11-20T14:33:16;7.00;99.90
18450;DHT22;9354;50.194;7.690;2022-11-20T14:35:47;7.00;99.90
18450;DHT22;9354;50.194;7.690;2022-11-20T14:38:17;7.00;99.90
18450;DHT22;9354;50.194;7.690;2022-11-20T14:40:46;7.00;99.90
18450;DHT22;9354;50.194;7.690;2022-11-20T14:43:19;7.00;99.90
18450;DHT22;9354;50.194;7.690;2022-11-20T14:45:55;7.00;99.90
18450;DHT22;9354;50.194;7.690;2022-11-20T14:48:28;7.00;99.90
18450;DHT22;9354;50.194;7.690;2022-11-20T14:50:57;7.00;99.90
18450;DHT22;9354;50.194;7.690;2022-11-20T14:53:25;6.90;99.90
18450;DHT22;9354;50.194;7.690;2022-11-20T14:55:58;6.90;99.90
18450;DHT22;9354;50.194;7.690;2022-11-20T14:58:27;6.90;99.90
18450;DHT22;9354;50.194;7.690;2022-11-20T15:00:56;6.90;99.90
18450;DHT22;9354;50.194;7.690;2022-11-20T15:03:31;6.90;99.90
18450;DHT22;9354;50.194;7.690;2022-11-20T15:05:58;6.80;99.90
18450;DHT22;9354;50.194;7.690;2022-11-20T15:08:26;6.80;99.90
18450;DHT22;9354;50.194;7.690;2022-11-20T15:10:54;6.80;99.90
18450;DHT22;9354;50.194;7.690;2022-11-20T15:13:30;6.80;99.90
18450;DHT22;9354;50.194;7.690;2022-11-20T15:15:59;6.80;99.90
18450;DHT22;9354;50.194;7.690;2022-11-20T15:18:29;6.80;99.90
18450;DHT22;9354;50.194;7.690;2022-11-20T15:21:01;6.80;99.90
18450;DHT22;9354;50.194;7.690;2022-11-20T15:23:29;6.80;99.90
18450;DHT22;9354;50.194;7.690;2022-11-20T15:25:56;6.80;99.90
18450;DHT22;9354;50.194;7.690;2022-11-20T15:28:29;6.70;99.90
18450;DHT22;9354;50.194;7.690;2022-11-20T15:30:57;6.70;99.90
18450;DHT22;9354;50.194;7.690;2022-11-20T15:33:25;6.60;99.90
18450;DHT22;9354;50.194;7.690;2022-11-20T15:35:52;6.60;99.90
18450;DHT22;9354;50.194;7.690;2022-11-20T15:38:19;6.60;99.90
18450;DHT22;9354;50.194;7.690;2022-11-20T15:40:47;6.60;99.90
18450;DHT22;9354;50.194;7.690;2022-11-20T15:43:14;6.60;99.90
18450;DHT22;9354;50.194;7.690;2022-11-20T15:45:45;6.60;99.90
18450;DHT22;9354;50.194;7.690;2022-11-20T15:48:16;6.60;99.90
18450;DHT22;9354;50.194;7.690;2022-11-20T15:50:50;6.60;99.90
18450;DHT22;9354;50.194;7.690;2022-11-20T15:53:19;6.60;99.90
18450;DHT22;9354;50.194;7.690;2022-11-20T15:55:46;6.60;99.90
18450;DHT22;9354;50.194;7.690;2022-11-20T15:58:14;6.50;99.90
18450;DHT22;9354;50.194;7.690;2022-11-20T16:00:44;6.50;99.90
18450;DHT22;9354;50.194;7.690;2022-11-20T16:03:12;6.50;99.90
18450;DHT22;9354;50.194;7.690;2022-11-20T16:05:39;6.50;99.90
18450;DHT22;9354;50.194;7.690;2022-11-20T16:08:06;6.40;99.90
18450;DHT22;9354;50.194;7.690;2022-11-20T16:10:34;6.40;99.90
18450;DHT22;9354;50.194;7.690;2022-11-20T16:13:01;6.40;99.90
18450;DHT22;9354;50.194;7.690;2022-11-20T16:15:53;6.40;99.90
18450;DHT22;9354;50.194;7.690;2022-11-20T16:18:23;6.30;99.90
18450;DHT22;9354;50.194;7.690;2022-11-20T16:20:51;6.30;99.90
18450;DHT22;9354;50.194;7.690;2022-11-20T16:23:20;6.30;99.90
18450;DHT22;9354;50.194;7.690;2022-11-20T16:25:48;6.30;99.90
18450;DHT22;9354;50.194;7.690;2022-11-20T16:28:16;6.30;99.90
18450;DHT22;9354;50.194;7.690;2022-11-20T16:30:43;6.20;99.90
18450;DHT22;9354;50.194;7.690;2022-11-20T16:33:14;6.20;99.90
18450;DHT22;9354;50.194;7.690;2022-11-20T16:35:41;6.10;99.90